Time;durP1;ratioP1;P1;durP2;ratioP2;P2;SDS_P1;SDS_P2;PMS_P1;PMS_P2;Temp;Humidity;BMP_temperature;BMP_pressure;BME280_temperature;BME280_humidity;BME280_pressure;Samples;Min_cycle;Max_cycle;Signal;HPM_P1;HPM_P2
2022/02/28 00:00:58;;;;;;;83.47;48.60;;;1.90;99.90;;;;;;5070553;28;20873;-84
2022/02/28 00:03:23;;;;;;;82.00;48.75;;;2.00;99.90;;;;;;5070603;28;20385;-84
2022/02/28 00:05:49;;;;;;;83.43;49.07;;;1.80;99.90;;;;;;5070725;28;20399;-86
2022/02/28 00:08:15;;;;;;;88.70;50.97;;;1.70;99.90;;;;;;5070888;28;20479;-86
2022/02/28 00:10:41;;;;;;;85.28;51.88;;;1.70;99.90;;;;;;5089389;28;20846;-86
2022/02/28 00:13:06;;;;;;;85.00;50.60;;;1.70;99.90;;;;;;5089233;28;20377;-85
2022/02/28 00:15:32;;;;;;;84.28;50.40;;;1.70;99.90;;;;;;5072866;28;20460;-86
2022/02/28 00:17:58;;;;;;;82.03;48.97;;;2.70;99.90;;;;;;5071360;28;20727;-84
2022/02/28 00:20:23;;;;;;;80.88;47.42;;;1.70;99.90;;;;;;5072081;28;20870;-84
2022/02/28 00:22:51;;;;;;;76.10;46.83;;;1.80;99.90;;;;;;5070764;28;20420;-85
2022/02/28 00:25:17;;;;;;;74.38;46.58;;;1.90;99.90;;;;;;5088933;28;20380;-86
2022/02/28 00:27:42;;;;;;;78.32;47.45;;;1.90;99.90;;;;;;5089394;28;20418;-85
2022/02/28 00:30:09;;;;;;;77.18;46.78;;;1.80;99.90;;;;;;5088935;28;20729;-85
2022/02/28 00:32:35;;;;;;;71.90;45.47;;;1.90;99.90;;;;;;5088733;28;20410;-85
2022/02/28 00:35:02;;;;;;;69.78;44.60;;;1.80;99.90;;;;;;5088520;28;20491;-84
2022/02/28 00:37:28;;;;;;;71.93;45.67;;;2.00;99.90;;;;;;5088685;28;20708;-85
2022/02/28 00:39:53;;;;;;;71.28;46.00;;;1.80;99.90;;;;;;5089725;28;20474;-83
2022/02/28 00:42:19;;;;;;;68.22;43.20;;;1.80;99.90;;;;;;5070349;28;20416;-84
2022/02/28 00:44:45;;;;;;;73.03;46.72;;;1.70;99.90;;;;;;5090879;28;20902;-84
2022/02/28 00:47:10;;;;;;;68.28;43.70;;;1.40;99.90;;;;;;5090870;28;20388;-85
2022/02/28 00:49:36;;;;;;;59.40;40.83;;;1.60;99.90;;;;;;5093398;28;20426;-84
2022/02/28 00:52:02;;;;;;;60.95;40.60;;;2.30;99.90;;;;;;5092739;28;20392;-85
2022/02/28 00:54:29;;;;;;;55.28;37.65;;;1.80;99.90;;;;;;5092516;28;20459;-88
2022/02/28 00:56:55;;;;;;;50.30;36.37;;;1.70;99.90;;;;;;5074359;28;20376;-86
2022/02/28 00:59:21;;;;;;;45.22;34.05;;;1.60;99.90;;;;;;5074143;28;20450;-86
2022/02/28 01:01:47;;;;;;;50.17;35.67;;;1.70;99.90;;;;;;5091875;28;20433;-84
2022/02/28 01:04:14;;;;;;;49.37;37.27;;;1.50;99.90;;;;;;5092058;28;20865;-85
2022/02/28 01:06:40;;;;;;;46.78;34.83;;;1.50;99.90;;;;;;5073691;28;20373;-83
2022/02/28 01:09:06;;;;;;;47.88;34.88;;;1.50;99.90;;;;;;5091944;28;20716;-85
2022/02/28 01:11:32;;;;;;;44.67;34.63;;;1.60;99.90;;;;;;5091714;28;20453;-84
2022/02/28 01:13:59;;;;;;;45.25;33.30;;;1.50;99.90;;;;;;5091967;28;20380;-86
2022/02/28 01:16:25;;;;;;;40.65;31.33;;;1.40;99.90;;;;;;5091573;28;20471;-85
2022/02/28 01:18:50;;;;;;;43.67;33.33;;;1.50;99.90;;;;;;5091698;28;20451;-84
2022/02/28 01:21:16;;;;;;;41.28;31.75;;;1.20;99.90;;;;;;5072995;28;20408;-84
2022/02/28 01:23:42;;;;;;;43.05;32.90;;;1.30;99.90;;;;;;5091724;28;20372;-84
2022/02/28 01:26:08;;;;;;;40.15;31.30;;;1.30;99.90;;;;;;5073227;28;20388;-86
2022/02/28 01:28:34;;;;;;;40.67;32.00;;;1.30;99.90;;;;;;5073038;28;20437;-85
2022/02/28 01:31:00;;;;;;;42.00;31.55;;;1.20;99.90;;;;;;5091564;28;20859;-85
2022/02/28 01:33:25;;;;;;;42.37;31.53;;;1.30;99.90;;;;;;5072943;28;20484;-84
2022/02/28 01:35:51;;;;;;;40.65;31.10;;;1.20;99.90;;;;;;5072905;28;20881;-86
2022/02/28 01:38:17;;;;;;;36.35;29.70;;;1.30;99.90;;;;;;5091262;28;20564;-86
2022/02/28 01:40:42;;;;;;;42.22;31.60;;;1.40;99.90;;;;;;5072870;28;20885;-85
2022/02/28 01:43:08;;;;;;;39.53;29.95;;;1.30;99.90;;;;;;5073734;28;20865;-86
2022/02/28 01:45:34;;;;;;;39.47;29.40;;;1.30;99.90;;;;;;5091862;28;20380;-86
2022/02/28 01:48:00;;;;;;;38.53;30.27;;;1.70;99.90;;;;;;5073498;28;20391;-83
2022/02/28 01:50:27;;;;;;;38.97;30.63;;;1.20;99.90;;;;;;5091155;28;20742;-87
2022/02/28 01:52:53;;;;;;;38.53;30.08;;;1.20;99.90;;;;;;5090671;28;20379;-83
2022/02/28 01:55:21;;;;;;;40.65;30.60;;;1.10;99.90;;;;;;5073132;28;20384;-84
2022/02/28 01:57:48;;;;;;;41.58;31.00;;;1.30;99.90;;;;;;5073471;28;20816;-87
2022/02/28 02:00:20;;;;;;;38.40;30.60;;;1.30;99.90;;;;;;5091402;28;20978;-85
2022/02/28 02:02:46;;;;;;;38.03;29.83;;;1.20;99.90;;;;;;5090820;28;21226;-86
2022/02/28 02:05:12;;;;;;;41.20;29.65;;;1.50;99.90;;;;;;5072527;28;20392;-85
2022/02/28 02:07:38;;;;;;;40.50;30.73;;;1.20;99.90;;;;;;5072831;28;20430;-84
2022/02/28 02:10:07;;;;;;;36.80;28.48;;;1.10;99.90;;;;;;5090699;28;20376;-86
2022/02/28 02:12:34;;;;;;;36.35;27.33;;;1.30;99.90;;;;;;5071682;28;20380;-84
2022/02/28 02:15:00;;;;;;;35.08;27.20;;;1.30;99.90;;;;;;5091068;28;20367;-85
2022/02/28 02:17:26;;;;;;;34.00;26.70;;;1.10;99.90;;;;;;5093228;28;20750;-88
2022/02/28 02:19:54;;;;;;;33.92;26.73;;;1.00;99.90;;;;;;5091133;28;20468;-85
2022/02/28 02:22:21;;;;;;;36.28;27.73;;;0.90;99.90;;;;;;5074249;28;20417;-84
2022/02/28 02:24:48;;;;;;;35.03;26.33;;;0.90;99.90;;;;;;5091864;28;20471;-85
2022/02/28 02:27:14;;;;;;;35.03;27.05;;;1.00;99.90;;;;;;5090673;28;20388;-84
2022/02/28 02:29:40;;;;;;;35.20;27.57;;;1.10;99.90;;;;;;5090468;28;20430;-87
2022/02/28 02:32:10;;;;;;;34.38;27.80;;;1.00;99.90;;;;;;5071824;28;20377;-86
2022/02/28 02:34:35;;;;;;;37.75;29.10;;;1.10;99.90;;;;;;5090354;28;20373;-83
2022/02/28 02:37:01;;;;;;;39.67;29.63;;;0.90;99.90;;;;;;5071784;28;20388;-84
2022/02/28 02:39:27;;;;;;;36.27;28.93;;;0.90;99.90;;;;;;5072387;28;20391;-85
2022/02/28 02:41:56;;;;;;;38.80;29.27;;;0.90;99.90;;;;;;5071593;28;20411;-84
2022/02/28 02:44:21;;;;;;;38.63;30.17;;;0.80;99.90;;;;;;5071829;28;20415;-84
2022/02/28 02:46:48;;;;;;;37.60;29.83;;;0.90;99.90;;;;;;5072016;28;20420;-84
2022/02/28 02:49:14;;;;;;;36.72;29.58;;;0.90;99.90;;;;;;5089876;28;20375;-85
2022/02/28 02:51:42;;;;;;;38.77;29.90;;;0.90;99.90;;;;;;5071458;28;20396;-86
2022/02/28 02:54:09;;;;;;;37.33;29.27;;;0.80;99.90;;;;;;5090247;28;20372;-86
2022/02/28 02:56:36;;;;;;;38.53;29.33;;;0.90;99.90;;;;;;5089899;28;20862;-84
2022/02/28 02:59:02;;;;;;;37.38;29.42;;;0.90;99.90;;;;;;5090047;28;20368;-83
2022/02/28 03:01:28;;;;;;;39.40;30.27;;;0.70;99.90;;;;;;5071527;28;20955;-85
2022/02/28 03:03:54;;;;;;;38.83;30.60;;;0.90;99.90;;;;;;5071643;28;20384;-85
2022/02/28 03:06:19;;;;;;;35.72;29.25;;;0.90;99.90;;;;;;5089137;28;20408;-85
2022/02/28 03:08:45;;;;;;;40.07;30.10;;;1.20;99.90;;;;;;5089689;28;20762;-84
2022/02/28 03:11:11;;;;;;;39.27;31.37;;;1.10;99.90;;;;;;5090071;28;20458;-87
2022/02/28 03:13:36;;;;;;;40.63;31.10;;;1.10;99.90;;;;;;5090538;28;20422;-85
2022/02/28 03:16:02;;;;;;;41.17;31.27;;;1.10;99.90;;;;;;5090347;28;20380;-84
2022/02/28 03:18:28;;;;;;;41.23;31.63;;;1.20;99.90;;;;;;5089707;28;20442;-84
2022/02/28 03:20:54;;;;;;;41.17;31.30;;;1.00;99.90;;;;;;5074128;28;20427;-86
2022/02/28 03:23:19;;;;;;;42.57;31.63;;;1.10;99.90;;;;;;5082382;28;20437;-83
2022/02/28 03:25:45;;;;;;;40.78;31.50;;;1.20;99.90;;;;;;5076193;28;20471;-84
2022/02/28 03:28:11;;;;;;;40.60;31.10;;;1.30;99.90;;;;;;5089835;28;20384;-84
2022/02/28 03:30:36;;;;;;;46.08;32.67;;;2.10;99.90;;;;;;5089447;28;20384;-87
2022/02/28 03:33:04;;;;;;;43.45;31.05;;;1.20;99.90;;;;;;5089095;28;20377;-86
2022/02/28 03:35:29;;;;;;;39.88;28.85;;;1.10;99.90;;;;;;5089416;28;20912;-85
2022/02/28 03:37:55;;;;;;;41.97;30.13;;;1.10;99.90;;;;;;5071059;28;20471;-86
2022/02/28 03:40:20;;;;;;;41.83;29.67;;;1.90;99.90;;;;;;5089257;28;20446;-84
2022/02/28 03:42:46;;;;;;;38.55;29.55;;;1.10;99.90;;;;;;5089019;28;20412;-85
2022/02/28 03:45:11;;;;;;;41.00;29.30;;;1.10;99.90;;;;;;5089802;28;20369;-85
2022/02/28 03:47:38;;;;;;;39.77;28.30;;;1.30;99.90;;;;;;5074218;28;20373;-84
2022/02/28 03:50:04;;;;;;;41.92;29.33;;;1.30;99.90;;;;;;5072705;28;20417;-85
2022/02/28 03:52:29;;;;;;;41.05;29.40;;;1.60;99.90;;;;;;5088491;28;20416;-83
2022/02/28 03:54:55;;;;;;;42.08;29.70;;;1.60;99.90;;;;;;5091055;28;20376;-84
2022/02/28 03:57:20;;;;;;;45.03;29.73;;;1.30;99.90;;;;;;5090961;28;20388;-84
2022/02/28 03:59:46;;;;;;;42.50;29.53;;;1.30;99.90;;;;;;5071415;28;20388;-86
2022/02/28 04:02:12;;;;;;;43.53;30.13;;;1.30;99.90;;;;;;5070287;28;20523;-83
2022/02/28 04:04:38;;;;;;;45.85;31.90;;;1.40;99.90;;;;;;5088760;28;20723;-86
2022/02/28 04:07:04;;;;;;;43.57;30.27;;;1.30;99.90;;;;;;5088578;28;20431;-83
2022/02/28 04:09:34;;;;;;;45.47;30.58;;;1.30;99.90;;;;;;5070408;28;20874;-87
2022/02/28 04:12:01;;;;;;;45.33;30.90;;;1.20;99.90;;;;;;5088924;28;20383;-87
2022/02/28 04:14:27;;;;;;;43.85;31.65;;;1.20;99.90;;;;;;5070722;28;20384;-85
2022/02/28 04:16:52;;;;;;;47.63;31.77;;;1.10;99.90;;;;;;5070944;28;20369;-85
2022/02/28 04:19:18;;;;;;;47.20;31.35;;;0.90;99.90;;;;;;5074242;28;20375;-84
2022/02/28 04:21:43;;;;;;;46.75;31.52;;;0.90;99.90;;;;;;5074213;28;20404;-86
2022/02/28 04:24:09;;;;;;;48.45;32.42;;;0.90;99.90;;;;;;5074772;28;20400;-84
2022/02/28 04:26:36;;;;;;;45.77;31.80;;;0.90;99.90;;;;;;5093048;28;20393;-85
2022/02/28 04:29:02;;;;;;;46.83;33.35;;;1.00;99.90;;;;;;5074699;28;20765;-85
2022/02/28 04:31:28;;;;;;;50.00;34.10;;;1.00;99.90;;;;;;5074433;28;20872;-84
2022/02/28 04:33:54;;;;;;;51.73;34.20;;;1.00;99.90;;;;;;5092737;28;20372;-84
2022/02/28 04:36:19;;;;;;;50.67;34.03;;;0.90;99.90;;;;;;5074358;28;20842;-84
2022/02/28 04:38:45;;;;;;;51.10;33.50;;;0.90;99.90;;;;;;5074234;28;20395;-86
2022/02/28 04:41:10;;;;;;;55.60;35.55;;;0.90;99.90;;;;;;5092381;28;20404;-85
2022/02/28 04:43:36;;;;;;;49.10;33.03;;;1.00;99.90;;;;;;5092386;28;20398;-84
2022/02/28 04:46:02;;;;;;;54.30;33.60;;;1.40;99.90;;;;;;5074425;28;20419;-84
2022/02/28 04:48:27;;;;;;;47.83;31.93;;;1.10;99.90;;;;;;5092540;28;20372;-85
2022/02/28 04:50:55;;;;;;;52.13;33.30;;;1.00;99.90;;;;;;5074210;28;20430;-84
2022/02/28 04:53:24;;;;;;;51.65;33.53;;;1.30;99.90;;;;;;5092464;28;20389;-84
2022/02/28 04:55:51;;;;;;;53.75;34.38;;;1.20;99.90;;;;;;5093728;28;20411;-85
2022/02/28 04:58:19;;;;;;;47.22;31.00;;;1.30;99.90;;;;;;5075218;28;20415;-84
2022/02/28 05:00:44;;;;;;;49.50;31.73;;;1.20;99.90;;;;;;5074846;28;20388;-85
2022/02/28 05:03:10;;;;;;;52.10;33.60;;;1.70;99.90;;;;;;5093070;28;20870;-84
2022/02/28 05:05:36;;;;;;;53.67;34.93;;;1.50;99.90;;;;;;5074225;28;20388;-84
2022/02/28 05:08:02;;;;;;;48.37;31.97;;;1.40;99.90;;;;;;5091796;28;20530;-86
2022/02/28 05:10:27;;;;;;;51.73;32.73;;;1.40;99.90;;;;;;5092251;28;20372;-86
2022/02/28 05:12:53;;;;;;;50.50;32.20;;;1.40;99.90;;;;;;5073799;28;20566;-85
2022/02/28 05:15:19;;;;;;;48.22;31.00;;;1.40;99.90;;;;;;5093220;28;20862;-86
2022/02/28 05:17:45;;;;;;;52.50;34.83;;;1.80;99.90;;;;;;5092542;28;20385;-86
2022/02/28 05:20:11;;;;;;;48.87;32.87;;;1.50;99.90;;;;;;5093336;28;20438;-85
2022/02/28 05:22:37;;;;;;;53.28;34.03;;;1.50;99.90;;;;;;5095067;28;20404;-84
2022/02/28 05:25:03;;;;;;;53.97;35.70;;;1.40;99.90;;;;;;5075749;28;20418;-86
2022/02/28 05:27:43;;;;;;;53.70;35.65;;;1.30;99.90;;;;;;5094562;28;20372;-86
2022/02/28 05:30:10;;;;;;;52.97;35.10;;;1.30;99.90;;;;;;5093390;28;20373;-86
2022/02/28 05:32:37;;;;;;;57.10;36.08;;;1.30;99.90;;;;;;5093516;28;20468;-86
2022/02/28 05:35:04;;;;;;;56.13;35.40;;;1.20;99.90;;;;;;5094395;28;20386;-85
2022/02/28 05:37:29;;;;;;;53.53;35.40;;;1.30;99.90;;;;;;5076771;28;20930;-83
2022/02/28 05:39:55;;;;;;;57.60;36.95;;;1.30;99.90;;;;;;5094295;28;20368;-85
2022/02/28 05:42:20;;;;;;;54.72;36.80;;;1.10;99.90;;;;;;5073557;28;20411;-85
2022/02/28 05:44:46;;;;;;;56.70;35.60;;;1.00;99.90;;;;;;5094269;28;20384;-84
2022/02/28 05:47:12;;;;;;;55.33;36.07;;;1.00;99.90;;;;;;5094399;28;20426;-84
2022/02/28 05:49:37;;;;;;;57.07;35.47;;;1.80;99.90;;;;;;5076080;28;20402;-84
2022/02/28 05:52:03;;;;;;;56.27;35.93;;;0.90;99.90;;;;;;5099159;28;20368;-84
2022/02/28 05:54:29;;;;;;;54.10;35.00;;;1.00;99.90;;;;;;5102508;28;20384;-84
2022/02/28 05:56:54;;;;;;;53.43;35.80;;;1.50;99.90;;;;;;5077656;28;20962;-85
2022/02/28 05:59:20;;;;;;;56.00;35.63;;;0.70;99.90;;;;;;5075873;28;20373;-84
2022/02/28 06:01:46;;;;;;;54.42;35.03;;;0.90;99.90;;;;;;5073760;28;20415;-86
2022/02/28 06:04:13;;;;;;;55.40;36.70;;;0.80;99.90;;;;;;5092376;28;21244;-86
2022/02/28 06:06:38;;;;;;;58.28;36.53;;;1.10;99.90;;;;;;5054477;28;20455;-85
2022/02/28 06:09:04;;;;;;;60.38;37.05;;;0.90;99.90;;;;;;5064447;28;20788;-84
2022/02/28 06:11:31;;;;;;;54.97;35.15;;;1.00;99.90;;;;;;5073745;28;20900;-85
2022/02/28 06:13:57;;;;;;;51.13;33.85;;;1.00;99.90;;;;;;5092501;28;20380;-84
2022/02/28 06:16:23;;;;;;;51.97;34.33;;;1.50;99.90;;;;;;5073703;28;20408;-86
2022/02/28 06:18:49;;;;;;;51.97;34.50;;;0.90;99.90;;;;;;5074618;28;20473;-84
2022/02/28 06:21:15;;;;;;;50.13;33.20;;;1.40;99.90;;;;;;5092285;28;20428;-86
2022/02/28 06:23:42;;;;;;;53.50;34.73;;;1.20;99.90;;;;;;5072819;28;20407;-84
2022/02/28 06:26:08;;;;;;;49.67;33.78;;;1.30;99.90;;;;;;5073181;28;20380;-86
2022/02/28 06:28:34;;;;;;;53.30;34.53;;;1.30;99.90;;;;;;5090285;28;20392;-84
2022/02/28 06:31:00;;;;;;;54.33;34.47;;;1.30;99.90;;;;;;5091121;28;20455;-84
2022/02/28 06:33:26;;;;;;;51.33;33.78;;;1.40;99.90;;;;;;5072450;28;20368;-84
2022/02/28 06:35:52;;;;;;;49.97;33.00;;;1.30;99.90;;;;;;5090527;28;20391;-86
2022/02/28 06:38:19;;;;;;;51.97;34.27;;;1.20;99.90;;;;;;5090935;28;20388;-86
2022/02/28 06:40:46;;;;;;;51.33;34.35;;;1.20;99.90;;;;;;5090046;28;20376;-84
2022/02/28 06:43:17;;;;;;;51.27;33.53;;;1.30;99.90;;;;;;5071527;28;20416;-85
2022/02/28 06:45:43;;;;;;;49.90;33.38;;;1.20;99.90;;;;;;5090601;28;20426;-87
2022/02/28 06:48:10;;;;;;;51.58;33.15;;;1.20;99.90;;;;;;5073531;28;20965;-86
2022/02/28 06:50:35;;;;;;;54.33;34.03;;;1.10;99.90;;;;;;5088345;28;20399;-84
2022/02/28 06:53:01;;;;;;;49.15;33.70;;;1.20;99.90;;;;;;5071765;28;20874;-84
2022/02/28 06:55:27;;;;;;;52.25;34.83;;;1.00;99.90;;;;;;5091397;28;20446;-86
2022/02/28 06:57:53;;;;;;;51.80;33.40;;;1.30;99.90;;;;;;5089730;28;20381;-85
2022/02/28 07:00:19;;;;;;;49.45;32.58;;;1.20;99.90;;;;;;5072015;28;20381;-84
2022/02/28 07:02:44;;;;;;;50.23;32.17;;;1.30;99.90;;;;;;5090041;28;20493;-84
2022/02/28 07:05:10;;;;;;;48.20;32.63;;;1.30;99.90;;;;;;5071747;28;20372;-86
2022/02/28 07:07:37;;;;;;;49.38;30.95;;;1.40;99.90;;;;;;5090461;28;20377;-84
2022/02/28 07:10:04;;;;;;;51.88;33.53;;;1.40;99.90;;;;;;5073177;28;20459;-85
2022/02/28 07:12:30;;;;;;;49.50;33.38;;;1.40;99.90;;;;;;5071426;28;20495;-87
2022/02/28 07:14:56;;;;;;;49.72;33.42;;;1.40;99.90;;;;;;5090044;28;20379;-86
2022/02/28 07:17:33;;;;;;;50.93;33.60;;;1.40;99.90;;;;;;5090396;28;20381;-83
2022/02/28 07:20:01;;;;;;;48.20;32.70;;;1.50;99.90;;;;;;5091378;28;20866;-85
2022/02/28 07:22:27;;;;;;;48.50;33.95;;;1.40;99.90;;;;;;5090486;28;20408;-84
2022/02/28 07:24:53;;;;;;;48.13;33.27;;;1.50;99.90;;;;;;5071182;28;20952;-85
2022/02/28 07:27:18;;;;;;;52.47;34.07;;;1.50;99.90;;;;;;5089325;28;20376;-85
2022/02/28 07:29:44;;;;;;;49.67;33.90;;;1.80;99.90;;;;;;5071727;28;20383;-86
2022/02/28 07:32:10;;;;;;;51.50;34.00;;;1.70;99.90;;;;;;5090923;28;20384;-84
2022/02/28 07:34:35;;;;;;;50.95;34.03;;;2.10;99.90;;;;;;5072788;28;20943;-86
2022/02/28 07:37:01;;;;;;;53.97;36.03;;;1.70;99.90;;;;;;5071859;28;20408;-83
2022/02/28 07:39:26;;;;;;;50.60;34.13;;;2.00;99.90;;;;;;5089382;28;20380;-84
2022/02/28 07:41:53;;;;;;;51.73;34.70;;;2.50;99.90;;;;;;5070497;28;20400;-86
2022/02/28 07:44:18;;;;;;;52.10;35.80;;;2.20;99.90;;;;;;5089661;28;20886;-86
2022/02/28 07:46:44;;;;;;;53.35;36.15;;;2.70;99.90;;;;;;5076670;28;20415;-85
2022/02/28 07:49:10;;;;;;;49.40;35.07;;;2.10;99.90;;;;;;5089878;28;20451;-88
2022/02/28 07:51:36;;;;;;;54.13;35.03;;;2.50;99.90;;;;;;5089903;28;20399;-87
2022/02/28 07:54:01;;;;;;;51.35;33.65;;;2.40;99.90;;;;;;5071397;28;20388;-88
2022/02/28 07:56:27;;;;;;;47.22;32.50;;;2.60;99.90;;;;;;5071415;28;20442;-88
2022/02/28 07:58:53;;;;;;;49.37;33.73;;;2.70;99.90;;;;;;5090359;28;20375;-86
2022/02/28 08:01:18;;;;;;;47.87;33.03;;;2.80;99.90;;;;;;5089582;28;20491;-89
2022/02/28 08:03:44;;;;;;;48.40;33.53;;;3.00;99.90;;;;;;5071702;28;20882;-83
2022/02/28 08:06:09;;;;;;;46.50;32.60;;;3.30;99.90;;;;;;5090774;28;20400;-83
2022/02/28 08:08:35;;;;;;;47.97;33.47;;;3.10;99.90;;;;;;5069813;28;20407;-87
2022/02/28 08:11:02;;;;;;;47.15;33.33;;;3.10;99.90;;;;;;5089788;28;20381;-86
2022/02/28 08:13:27;;;;;;;50.72;34.17;;;3.90;99.90;;;;;;5089082;28;20360;-86
2022/02/28 08:15:53;;;;;;;50.03;34.30;;;3.30;99.90;;;;;;5090933;28;20387;-88
2022/02/28 08:18:19;;;;;;;46.70;32.38;;;3.30;99.90;;;;;;5072826;28;20479;-84
2022/02/28 08:20:45;;;;;;;46.33;32.77;;;3.90;99.90;;;;;;5071521;28;20388;-85
2022/02/28 08:23:11;;;;;;;48.60;33.70;;;3.50;99.90;;;;;;5070796;28;20416;-85
2022/02/28 08:25:36;;;;;;;46.43;32.53;;;3.50;99.90;;;;;;5089487;28;20979;-84
2022/02/28 08:28:02;;;;;;;47.42;34.65;;;3.70;99.90;;;;;;5092738;28;20375;-83
2022/02/28 08:30:28;;;;;;;48.03;34.50;;;3.30;99.90;;;;;;5083111;28;20387;-87
2022/02/28 08:32:54;;;;;;;50.38;34.85;;;3.50;99.90;;;;;;5091037;28;20468;-86
2022/02/28 08:35:22;;;;;;;47.72;33.72;;;3.10;99.90;;;;;;5090170;28;20380;-85
2022/02/28 08:37:47;;;;;;;44.65;33.22;;;3.10;99.90;;;;;;5070850;28;20578;-85
2022/02/28 08:40:14;;;;;;;46.83;33.63;;;3.40;99.90;;;;;;5087995;28;20493;-85
2022/02/28 08:42:40;;;;;;;46.95;33.17;;;3.50;99.90;;;;;;5088707;28;20507;-87
2022/02/28 08:45:07;;;;;;;44.63;32.50;;;3.70;99.90;;;;;;5070729;28;20384;-87
2022/02/28 08:47:32;;;;;;;43.85;31.45;;;4.00;99.90;;;;;;5088462;28;20427;-84
2022/02/28 08:50:00;;;;;;;46.35;33.92;;;4.20;99.90;;;;;;5070767;28;20377;-87
2022/02/28 08:52:27;;;;;;;45.13;32.75;;;4.10;99.90;;;;;;5089024;28;20404;-83
2022/02/28 08:54:52;;;;;;;45.95;32.83;;;4.00;99.90;;;;;;5079723;28;20408;-82
2022/02/28 08:57:20;;;;;;;42.03;32.07;;;5.10;99.90;;;;;;5096482;28;20361;-83
2022/02/28 08:59:45;;;;;;;45.17;32.88;;;4.60;99.90;;;;;;5095801;28;20380;-86
2022/02/28 09:02:11;;;;;;;44.20;33.13;;;5.00;99.90;;;;;;5090881;28;20470;-85
2022/02/28 09:04:37;;;;;;;44.20;32.13;;;5.30;99.90;;;;;;5100765;28;20386;-84
2022/02/28 09:07:03;;;;;;;45.00;33.30;;;5.40;99.90;;;;;;5097272;28;20387;-86
2022/02/28 09:09:28;;;;;;;43.83;32.67;;;5.40;99.90;;;;;;5084507;28;20907;-82
2022/02/28 09:11:54;;;;;;;41.37;32.10;;;5.40;99.90;;;;;;5104374;28;20384;-83
2022/02/28 09:14:20;;;;;;;44.90;33.15;;;5.40;99.90;;;;;;5080166;28;20496;-86
2022/02/28 09:16:48;;;;;;;46.72;33.75;;;5.20;99.90;;;;;;5073747;28;20384;-85
2022/02/28 09:19:15;;;;;;;45.67;32.60;;;5.00;99.90;;;;;;5094875;28;20391;-83
2022/02/28 09:21:41;;;;;;;46.97;34.00;;;4.80;99.90;;;;;;5074399;28;20444;-84
2022/02/28 09:24:07;;;;;;;47.60;33.60;;;4.60;99.90;;;;;;5091375;28;20438;-84
2022/02/28 09:26:33;;;;;;;45.35;33.35;;;4.60;99.90;;;;;;5089631;28;20408;-85
2022/02/28 09:28:59;;;;;;;42.90;33.58;;;4.60;99.90;;;;;;5069926;28;20397;-85
2022/02/28 09:31:25;;;;;;;46.63;34.50;;;4.60;99.90;;;;;;5064904;28;20388;-88
2022/02/28 09:33:50;;;;;;;43.57;32.63;;;4.50;99.90;;;;;;5092289;28;20369;-87
2022/02/28 09:36:16;;;;;;;44.00;33.67;;;4.60;99.90;;;;;;5073654;28;20908;-87
2022/02/28 09:38:42;;;;;;;43.30;33.17;;;4.70;99.90;;;;;;5091647;28;20446;-89
2022/02/28 09:41:10;;;;;;;43.23;32.97;;;4.90;99.90;;;;;;5073247;28;20426;-86
2022/02/28 09:43:37;;;;;;;45.35;32.90;;;5.00;99.90;;;;;;5074653;28;20376;-86
2022/02/28 09:46:03;;;;;;;43.08;32.28;;;5.00;99.90;;;;;;5076301;28;20383;-84
2022/02/28 09:48:32;;;;;;;45.83;34.45;;;4.80;99.90;;;;;;5093179;28;20383;-87
2022/02/28 09:50:57;;;;;;;45.28;32.45;;;4.70;99.90;;;;;;5093422;28;20376;-85
2022/02/28 09:53:26;;;;;;;45.47;33.85;;;4.70;99.90;;;;;;5094955;28;20446;-83
2022/02/28 09:55:52;;;;;;;44.08;33.28;;;5.00;99.90;;;;;;5081811;28;20438;-85
2022/02/28 09:58:32;;;;;;;45.15;32.55;;;5.20;99.90;;;;;;5073458;28;20384;-86
2022/02/28 10:01:00;;;;;;;43.17;31.77;;;5.50;99.90;;;;;;5093218;28;20380;-88
2022/02/28 10:03:27;;;;;;;47.05;33.05;;;5.50;99.90;;;;;;5074080;28;20411;-84
2022/02/28 10:05:59;;;;;;;49.05;35.03;;;5.80;99.90;;;;;;5073923;28;20384;-86
2022/02/28 10:08:26;;;;;;;43.40;34.40;;;5.80;99.90;;;;;;5092941;28;20404;-84
2022/02/28 10:10:52;;;;;;;48.30;34.80;;;5.50;99.90;;;;;;5094698;28;20408;-85
2022/02/28 10:13:32;;;;;;;45.03;34.10;;;5.30;99.90;;;;;;5092180;28;20434;-87
2022/02/28 10:15:58;;;;;;;42.83;33.03;;;5.60;99.90;;;;;;5071204;28;20471;-88
2022/02/28 10:18:26;;;;;;;43.60;33.37;;;5.70;99.90;;;;;;5090945;28;20384;-88
2022/02/28 10:20:52;;;;;;;43.08;31.65;;;5.80;99.90;;;;;;5072346;28;20400;-82
2022/02/28 10:23:18;;;;;;;41.25;30.15;;;6.00;99.90;;;;;;5092403;28;20403;-88
2022/02/28 10:25:46;;;;;;;41.70;31.83;;;5.40;99.90;;;;;;5073160;28;20376;-84
2022/02/28 10:28:24;;;;;;;47.25;35.25;;;6.10;99.90;;;;;;5056565;28;20397;-87
2022/02/28 10:31:05;;;;;;;43.20;32.35;;;6.00;99.90;;;;;;5092385;28;20380;-87
2022/02/28 10:33:36;;;;;;;39.40;29.73;;;5.70;99.90;;;;;;5072978;28;20376;-85
2022/02/28 10:36:21;;;;;;;37.42;28.90;;;5.80;99.90;;;;;;5096231;28;20487;-87
2022/02/28 10:38:53;;;;;;;39.72;29.42;;;5.90;99.90;;;;;;5072621;28;20404;-84
2022/02/28 10:41:27;;;;;;;34.85;27.10;;;5.90;99.90;;;;;;5091309;28;21167;-85
2022/02/28 10:43:55;;;;;;;36.60;27.47;;;5.90;99.90;;;;;;5074282;28;20365;-83
2022/02/28 10:46:25;;;;;;;35.42;24.90;;;5.80;99.90;;;;;;5092826;28;20379;-83
2022/02/28 10:48:59;;;;;;;32.65;24.33;;;5.60;99.90;;;;;;5092045;28;20402;-84
2022/02/28 10:51:26;;;;;;;31.40;23.67;;;5.50;99.90;;;;;;5083153;28;20385;-85
2022/02/28 10:54:20;;;;;;;30.45;22.83;;;5.50;99.90;;;;;;5089988;28;20404;-87
2022/02/28 10:56:49;;;;;;;29.58;23.70;;;5.60;99.90;;;;;;5072233;28;20430;-83
2022/02/28 10:59:15;;;;;;;31.48;23.52;;;5.70;99.90;;;;;;5090145;28;20404;-85
2022/02/28 11:01:42;;;;;;;27.98;21.02;;;5.90;99.90;;;;;;5091373;28;20400;-89
2022/02/28 11:04:09;;;;;;;27.48;21.35;;;5.90;99.90;;;;;;5092320;28;20387;-82
2022/02/28 11:06:35;;;;;;;27.65;20.80;;;6.00;99.90;;;;;;5101670;28;20425;-86
2022/02/28 11:09:03;;;;;;;26.55;19.83;;;5.90;99.90;;;;;;5115458;28;20363;-85
2022/02/28 11:11:29;;;;;;;31.10;21.83;;;6.00;99.90;;;;;;5074861;28;20403;-86
2022/02/28 11:13:55;;;;;;;26.65;18.95;;;5.90;99.90;;;;;;5075588;28;20380;-84
2022/02/28 11:16:25;;;;;;;24.58;18.27;;;6.00;99.90;;;;;;5091760;28;20377;-87
2022/02/28 11:18:51;;;;;;;26.20;19.67;;;6.10;99.90;;;;;;5091350;28;20372;-85
2022/02/28 11:21:17;;;;;;;24.60;18.95;;;6.20;99.90;;;;;;5073971;28;20408;-86
2022/02/28 11:23:45;;;;;;;25.43;19.37;;;6.20;99.90;;;;;;5091791;28;20368;-84
2022/02/28 11:26:12;;;;;;;26.50;20.10;;;6.30;99.90;;;;;;5090318;28;20388;-85
2022/02/28 11:28:38;;;;;;;24.63;19.40;;;6.40;99.90;;;;;;5091099;28;20377;-83
2022/02/28 11:31:06;;;;;;;24.37;18.23;;;6.30;99.90;;;;;;5090206;28;20423;-85
2022/02/28 11:33:32;;;;;;;25.90;18.83;;;6.20;99.90;;;;;;5090961;28;20449;-86
2022/02/28 11:35:58;;;;;;;24.25;17.92;;;6.30;99.90;;;;;;5093712;28;20449;-83
2022/02/28 11:38:30;;;;;;;25.57;18.20;;;6.40;99.90;;;;;;5094216;28;20384;-84
2022/02/28 11:41:02;;;;;;;25.02;18.08;;;6.50;99.90;;;;;;5083367;28;20410;-86
2022/02/28 11:43:33;;;;;;;24.40;18.08;;;6.60;99.90;;;;;;5064127;28;21600;-83
2022/02/28 11:46:06;;;;;;;26.05;18.23;;;6.70;99.90;;;;;;5068354;28;20384;-85
2022/02/28 11:48:40;;;;;;;24.43;18.50;;;6.70;99.90;;;;;;5065041;28;20384;-84
2022/02/28 11:51:19;;;;;;;21.13;16.88;;;6.60;99.90;;;;;;5066376;28;20751;-82
2022/02/28 11:53:53;;;;;;;22.73;16.35;;;6.60;99.90;;;;;;5080563;28;20800;-86
2022/02/28 11:56:19;;;;;;;19.50;15.77;;;6.70;99.90;;;;;;5062931;28;20389;-85
2022/02/28 11:58:58;;;;;;;23.37;16.70;;;6.80;99.90;;;;;;5087566;28;20392;-84
2022/02/28 12:01:30;;;;;;;23.08;16.85;;;6.60;99.90;;;;;;5062608;28;20417;-86
2022/02/28 12:04:11;;;;;;;23.35;16.70;;;6.60;99.90;;;;;;5083658;28;20476;-82
2022/02/28 12:07:06;;;;;;;23.20;16.33;;;6.60;99.90;;;;;;5061462;28;20378;-87
2022/02/28 12:09:35;;;;;;;19.45;14.82;;;6.60;99.90;;;;;;5066420;28;20392;-83
2022/02/28 12:12:25;;;;;;;19.42;14.82;;;6.70;99.90;;;;;;5084385;28;20400;-85
2022/02/28 12:17:33;;;;;;;19.75;13.80;;;6.70;99.90;;;;;;5088544;28;20413;-82
2022/02/28 12:20:27;;;;;;;17.88;14.05;;;6.80;99.90;;;;;;5075339;28;20893;-83
2022/02/28 12:22:53;;;;;;;19.33;14.90;;;6.90;99.90;;;;;;5073068;28;21002;-82
2022/02/28 12:25:51;;;;;;;17.70;13.57;;;7.00;99.90;;;;;;5091730;28;20437;-84
2022/02/28 12:28:24;;;;;;;19.33;14.43;;;7.00;99.90;;;;;;5059454;28;20394;-82
2022/02/28 12:31:00;;;;;;;18.63;13.45;;;6.90;99.90;;;;;;5074632;28;20396;-83
2022/02/28 12:33:35;;;;;;;20.83;15.00;;;6.90;99.90;;;;;;5089548;28;20425;-83
2022/02/28 12:36:08;;;;;;;19.23;14.60;;;6.90;99.90;;;;;;5073381;28;20398;-84
2022/02/28 12:38:36;;;;;;;18.17;14.48;;;7.00;99.90;;;;;;5090401;28;20497;-83